createdAt,value
2019-04-19T00:00:49.876Z,4.57
2019-04-19T00:03:20.334Z,4.60
2019-04-19T00:05:54.204Z,4.60
2019-04-19T00:08:37.346Z,4.37
2019-04-19T00:11:01.955Z,4.23
2019-04-19T00:13:21.989Z,4.30
2019-04-19T00:15:51.866Z,4.67
2019-04-19T00:18:21.767Z,4.30
2019-04-19T00:21:11.191Z,4.10
2019-04-19T00:23:27.846Z,4.57
2019-04-19T00:25:49.366Z,4.37
2019-04-19T00:28:23.360Z,4.03
2019-04-19T00:30:59.234Z,4.40
2019-04-19T00:33:26.036Z,3.90
2019-04-19T00:35:45.478Z,4.13
2019-04-19T00:38:26.524Z,4.40
2019-04-19T00:41:16.063Z,4.13
2019-04-19T00:44:02.419Z,3.80
2019-04-19T00:46:34.382Z,4.50
2019-04-19T00:49:00.658Z,4.50
2019-04-19T00:51:34.352Z,4.37
2019-04-19T00:53:58.765Z,4.53
2019-04-19T00:56:23.579Z,4.53
2019-04-19T00:58:51.718Z,4.67
2019-04-19T01:01:18.074Z,3.67
2019-04-19T01:03:47.079Z,4.30
2019-04-19T01:06:15.387Z,4.10
2019-04-19T01:08:50.907Z,4.40
2019-04-19T01:11:24.432Z,4.40
2019-04-19T01:13:56.218Z,4.80
2019-04-19T01:16:18.669Z,4.30
2019-04-19T01:18:49.352Z,4.87
2019-04-19T01:21:07.097Z,4.03
2019-04-19T01:23:44.280Z,4.57
2019-04-19T01:26:10.114Z,3.70
2019-04-19T01:28:35.381Z,4.03
2019-04-19T01:31:10.154Z,4.07
2019-04-19T01:33:38.979Z,4.00
2019-04-19T01:36:04.230Z,4.30
2019-04-19T01:38:38.668Z,4.60
2019-04-19T01:41:18.319Z,4.10
2019-04-19T01:43:54.929Z,4.53
2019-04-19T01:46:47.426Z,4.30
2019-04-19T01:49:09.477Z,4.43
2019-04-19T01:51:51.984Z,4.90
2019-04-19T01:54:34.530Z,4.73
2019-04-19T01:56:53.566Z,4.57
2019-04-19T01:59:18.127Z,4.67
2019-04-19T02:01:46.401Z,4.67
2019-04-19T02:04:21.644Z,4.10
2019-04-19T02:06:47.661Z,4.87
2019-04-19T02:09:26.801Z,4.70
2019-04-19T02:11:56.607Z,4.33
2019-04-19T02:14:22.742Z,4.83
2019-04-19T02:16:52.697Z,4.63
2019-04-19T02:19:21.272Z,4.50
2019-04-19T02:21:48.727Z,4.90
2019-04-19T02:24:14.811Z,4.53
2019-04-19T02:26:52.178Z,5.13
2019-04-19T02:29:16.826Z,4.20
2019-04-19T02:32:07.286Z,4.90
2019-04-19T02:34:47.186Z,4.77
2019-04-19T02:37:08.004Z,4.83
2019-04-19T02:39:51.011Z,4.83
2019-04-19T02:42:16.435Z,5.30
2019-04-19T02:44:38.331Z,4.67
2019-04-19T02:49:46.881Z,4.70
2019-04-19T02:52:09.943Z,5.00
2019-04-19T02:57:39.636Z,5.03
2019-04-19T03:00:30.813Z,4.90
2019-04-19T03:03:06.046Z,4.87
2019-04-19T03:05:34.609Z,4.70
2019-04-19T03:07:42.571Z,5.63
2019-04-19T03:10:17.448Z,5.23
2019-04-19T03:13:00.146Z,4.67
2019-04-19T03:15:24.809Z,4.70
2019-04-19T03:17:57.520Z,5.20
2019-04-19T03:20:21.895Z,5.10
2019-04-19T03:22:54.771Z,4.53
2019-04-19T03:25:18.288Z,5.27
2019-04-19T03:27:49.717Z,4.90
2019-04-19T03:30:23.162Z,4.83
2019-04-19T03:33:11.059Z,5.10
2019-04-19T03:35:14.984Z,5.17
2019-04-19T03:37:57.408Z,5.00
2019-04-19T03:40:23.338Z,4.97
2019-04-19T03:43:10.442Z,5.13
2019-04-19T03:45:43.671Z,5.57
2019-04-19T03:48:12.003Z,5.90
2019-04-19T03:50:37.735Z,19.60
2019-04-19T03:53:09.171Z,16.70
2019-04-19T03:55:39.108Z,7.13
2019-04-19T03:57:54.990Z,5.50
2019-04-19T04:00:17.401Z,5.93
2019-04-19T04:02:48.056Z,5.07
2019-04-19T04:05:17.448Z,5.70
2019-04-19T04:07:55.283Z,5.97
2019-04-19T04:10:37.705Z,6.30
2019-04-19T04:13:28.706Z,8.63
2019-04-19T04:16:14.082Z,6.63
2019-04-19T04:18:27.935Z,5.80
2019-04-19T04:20:59.031Z,5.67
2019-04-19T04:23:32.284Z,6.07
2019-04-19T04:26:02.899Z,5.97
2019-04-19T04:28:41.593Z,5.57
2019-04-19T04:31:05.832Z,5.87
2019-04-19T04:33:32.198Z,6.03
2019-04-19T04:36:13.097Z,6.13
2019-04-19T04:38:29.849Z,5.83
2019-04-19T04:40:50.717Z,5.50
2019-04-19T04:43:31.387Z,5.80
2019-04-19T04:46:32.508Z,5.57
2019-04-19T04:48:49.760Z,5.87
2019-04-19T04:51:23.431Z,5.77
2019-04-19T04:53:47.081Z,5.60
2019-04-19T04:56:19.444Z,5.20
2019-04-19T04:58:49.584Z,5.50
2019-04-19T05:01:32.421Z,5.90
2019-04-19T05:04:02.026Z,5.77
2019-04-19T05:06:32.436Z,6.00
2019-04-19T05:08:58.497Z,5.60
2019-04-19T05:11:30.457Z,6.10
2019-04-19T05:14:03.016Z,5.77
2019-04-19T05:16:53.594Z,6.27
2019-04-19T05:18:59.451Z,6.30
2019-04-19T05:21:27.189Z,6.10
2019-04-19T05:24:04.974Z,6.33
2019-04-19T05:26:52.489Z,6.40
2019-04-19T05:28:57.221Z,5.73
2019-04-19T05:31:11.221Z,5.67
2019-04-19T05:33:51.461Z,5.93
2019-04-19T05:36:27.603Z,5.93
2019-04-19T05:39:12.452Z,6.10
2019-04-19T05:41:56.443Z,5.20
2019-04-19T05:45:11.919Z,6.17
2019-04-19T05:47:18.372Z,6.30
2019-04-19T05:49:51.522Z,6.97
2019-04-19T05:52:27.282Z,6.33
2019-04-19T05:54:32.099Z,5.90
2019-04-19T05:57:17.721Z,5.90
2019-04-19T05:59:42.598Z,6.90
2019-04-19T06:02:13.554Z,6.90
2019-04-19T06:04:58.209Z,5.60
2019-04-19T06:07:18.864Z,6.10
2019-04-19T06:09:26.937Z,7.03
2019-04-19T06:11:56.948Z,6.67
2019-04-19T06:14:50.780Z,6.97
2019-04-19T06:17:30.501Z,21.90
2019-04-19T06:19:56.817Z,10.60
2019-04-19T06:22:37.168Z,8.17
2019-04-19T06:25:00.704Z,6.50
2019-04-19T06:27:43.877Z,6.73
2019-04-19T06:30:11.797Z,6.37
2019-04-19T06:32:39.025Z,6.30
2019-04-19T06:35:00.273Z,6.83
2019-04-19T06:37:18.037Z,6.43
2019-04-19T06:39:42.120Z,7.03
2019-04-19T06:42:13.671Z,6.90
2019-04-19T06:45:02.914Z,7.70
2019-04-19T06:47:19.683Z,7.70
2019-04-19T06:49:40.652Z,8.50
2019-04-19T06:52:14.984Z,10.00
2019-04-19T06:54:41.582Z,7.90
2019-04-19T06:57:16.498Z,7.57
2019-04-19T06:59:52.098Z,7.10
2019-04-19T07:02:05.642Z,5.37
2019-04-19T07:04:46.127Z,6.80
2019-04-19T07:07:21.870Z,7.47
2019-04-19T07:10:01.078Z,7.67
2019-04-19T07:12:23.993Z,8.00
2019-04-19T07:14:34.945Z,7.93
2019-04-19T07:17:23.229Z,6.87
2019-04-19T07:19:52.887Z,8.10
2019-04-19T07:22:14.399Z,8.27
2019-04-19T07:24:51.221Z,8.17
2019-04-19T07:27:15.400Z,7.80
2019-04-19T07:29:27.651Z,7.87
2019-04-19T07:31:57.717Z,9.67
2019-04-19T07:34:44.762Z,9.23
2019-04-19T07:37:14.514Z,9.03
2019-04-19T07:39:50.953Z,8.53
2019-04-19T07:42:16.926Z,8.77
2019-04-19T07:44:48.011Z,8.47
2019-04-19T07:47:31.839Z,8.20
2019-04-19T07:49:57.299Z,8.30
2019-04-19T07:52:21.445Z,8.73
2019-04-19T07:54:47.876Z,7.83
2019-04-19T07:57:52.001Z,8.50
2019-04-19T08:00:13.940Z,8.77
2019-04-19T08:05:11.406Z,7.73
2019-04-19T08:07:56.853Z,8.63
2019-04-19T08:10:24.713Z,9.05
2019-04-19T08:16:01.357Z,10.70
2019-04-19T08:27:30.971Z,8.95
2019-04-19T08:29:47.346Z,9.85
2019-04-19T08:32:06.917Z,9.83
2019-04-19T08:34:35.052Z,9.60
2019-04-19T08:37:10.110Z,8.48
2019-04-19T08:39:51.032Z,9.78
2019-04-19T08:42:22.421Z,9.60
2019-04-19T08:44:43.085Z,9.55
2019-04-19T08:47:34.597Z,10.55
2019-04-19T08:50:13.749Z,10.88
2019-04-19T08:52:41.472Z,9.58
2019-04-19T08:55:33.809Z,9.20
2019-04-19T08:57:39.568Z,9.38
2019-04-19T09:00:52.184Z,9.08
2019-04-19T09:02:48.781Z,9.50
2019-04-19T09:05:22.390Z,9.65
2019-04-19T09:08:03.230Z,9.88
2019-04-19T09:10:31.883Z,10.53
2019-04-19T09:13:14.204Z,10.28
2019-04-19T09:15:21.569Z,9.10
2019-04-19T09:20:31.732Z,9.05
2019-04-19T09:23:06.539Z,8.30
2019-04-19T09:25:44.012Z,9.90
2019-04-19T09:28:30.842Z,11.03
2019-04-19T09:30:52.377Z,11.33
2019-04-19T09:33:09.963Z,11.53
2019-04-19T09:35:39.912Z,9.20
2019-04-19T09:38:13.912Z,9.35
2019-04-19T09:40:39.249Z,9.58
2019-04-19T09:43:18.324Z,10.35
2019-04-19T09:45:29.777Z,9.95
2019-04-19T09:47:59.088Z,9.50
2019-04-19T09:50:43.311Z,10.08
2019-04-19T09:53:29.151Z,9.35
2019-04-19T09:55:49.705Z,10.88
2019-04-19T09:58:16.922Z,10.30
2019-04-19T10:00:28.936Z,10.40
2019-04-19T10:03:00.542Z,9.98
2019-04-19T10:05:24.328Z,9.50
2019-04-19T10:07:55.090Z,10.18
2019-04-19T10:10:22.919Z,11.20
2019-04-19T10:12:52.137Z,10.60
2019-04-19T10:15:46.650Z,10.93
2019-04-19T10:18:16.323Z,10.75
2019-04-19T10:21:04.911Z,11.10
2019-04-19T10:23:33.703Z,11.40
2019-04-19T10:26:07.118Z,9.83
2019-04-19T10:28:32.274Z,10.82
2019-04-19T10:31:07.804Z,10.63
2019-04-19T10:33:46.578Z,9.90
2019-04-19T10:36:06.658Z,9.68
2019-04-19T10:38:35.923Z,10.10
2019-04-19T10:41:05.158Z,10.15
2019-04-19T10:43:34.974Z,10.48
2019-04-19T10:46:04.822Z,11.15
2019-04-19T10:48:33.039Z,11.35
2019-04-19T10:51:12.352Z,10.98
2019-04-19T10:53:42.091Z,10.35
2019-04-19T10:56:18.686Z,10.30
2019-04-19T10:58:48.986Z,9.98
2019-04-19T11:01:17.174Z,9.58
2019-04-19T11:03:46.961Z,10.38
2019-04-19T11:06:16.810Z,10.50
2019-04-19T11:08:45.226Z,10.05
2019-04-19T11:11:14.436Z,10.78
2019-04-19T11:13:43.798Z,10.08
2019-04-19T11:16:13.020Z,10.58
2019-04-19T11:18:43.511Z,10.05
2019-04-19T11:21:11.685Z,10.48
2019-04-19T11:23:41.927Z,10.10
2019-04-19T11:26:10.383Z,9.30
2019-04-19T11:28:40.927Z,9.63
2019-04-19T11:31:33.983Z,8.88
2019-04-19T11:34:03.019Z,8.75
2019-04-19T11:36:33.280Z,8.73
2019-04-19T11:39:01.549Z,9.05
2019-04-19T11:41:31.277Z,8.00
2019-04-19T11:44:06.202Z,7.58
2019-04-19T11:46:29.865Z,7.42
2019-04-19T11:48:59.708Z,7.87
2019-04-19T11:51:27.909Z,7.60
2019-04-19T11:53:57.113Z,5.92
2019-04-19T11:56:50.585Z,7.47
2019-04-19T11:59:40.647Z,7.25
2019-04-19T12:02:06.074Z,6.80
2019-04-19T12:04:34.906Z,6.83
2019-04-19T12:07:04.132Z,7.12
2019-04-19T12:09:34.448Z,6.75
2019-04-19T12:12:03.204Z,6.28
2019-04-19T12:14:32.739Z,5.20
2019-04-19T12:17:02.746Z,5.08
2019-04-19T12:19:40.177Z,5.55
2019-04-19T12:22:00.979Z,5.28
2019-04-19T12:24:29.018Z,5.80
2019-04-19T12:26:58.232Z,4.90
2019-04-19T12:29:35.315Z,5.12
2019-04-19T12:31:56.703Z,5.37
2019-04-19T12:34:25.932Z,6.00
2019-04-19T12:36:55.193Z,8.85
2019-04-19T12:39:25.150Z,5.75
2019-04-19T12:41:53.741Z,5.22
2019-04-19T12:44:23.023Z,5.50
2019-04-19T12:46:52.956Z,5.65
2019-04-19T12:49:22.691Z,4.95
2019-04-19T12:51:51.983Z,4.80
2019-04-19T12:54:20.361Z,4.92
2019-04-19T12:56:49.816Z,5.28
2019-04-19T12:59:21.282Z,5.33
2019-04-19T13:01:59.794Z,5.08
2019-04-19T13:04:50.612Z,4.80
2019-04-19T13:07:18.650Z,4.80
2019-04-19T13:09:48.884Z,5.10
2019-04-19T13:12:17.075Z,4.17
2019-04-19T13:14:46.358Z,5.10
2019-04-19T13:17:16.044Z,4.83
2019-04-19T13:19:45.129Z,4.10
2019-04-19T13:22:14.523Z,4.50
2019-04-19T13:24:44.678Z,3.90
2019-04-19T13:27:12.780Z,4.28
2019-04-19T13:29:42.054Z,6.53
2019-04-19T13:32:11.600Z,5.05
2019-04-19T13:34:41.165Z,4.47
2019-04-19T13:37:27.817Z,4.33
2019-04-19T13:40:08.164Z,4.70
2019-04-19T13:42:37.335Z,4.55
2019-04-19T13:45:13.931Z,4.90
2019-04-19T13:47:36.498Z,5.17
2019-04-19T13:50:19.302Z,4.95
2019-04-19T13:52:34.758Z,4.12
2019-04-19T13:55:04.278Z,5.53
2019-04-19T13:57:33.543Z,5.28
2019-04-19T14:00:06.447Z,4.90
2019-04-19T14:02:32.102Z,4.72
2019-04-19T14:05:01.915Z,5.12
2019-04-19T14:07:30.839Z,5.17
2019-04-19T14:10:01.080Z,4.58
2019-04-19T14:12:29.149Z,6.15
2019-04-19T14:14:58.942Z,5.92
2019-04-19T14:17:27.505Z,4.85
2019-04-19T14:19:57.085Z,4.60
2019-04-19T14:22:25.852Z,5.12
2019-04-19T14:24:55.923Z,5.58
2019-04-19T14:27:24.348Z,6.28
2019-04-19T14:29:53.690Z,7.08
2019-04-19T14:32:23.283Z,7.33
2019-04-19T14:34:52.142Z,4.90
2019-04-19T14:37:22.445Z,5.17
2019-04-19T14:39:50.544Z,4.83
2019-04-19T14:42:19.851Z,9.08
2019-04-19T14:44:50.057Z,6.72
2019-04-19T14:47:19.005Z,6.62
2019-04-19T14:49:49.031Z,4.70
2019-04-19T14:52:18.154Z,4.87
2019-04-19T14:54:46.360Z,4.50
2019-04-19T14:57:15.424Z,4.42
2019-04-19T14:59:45.086Z,4.05
2019-04-19T15:02:16.740Z,4.65
2019-04-19T15:05:07.698Z,4.75
2019-04-19T15:07:36.674Z,5.42
2019-04-19T15:10:06.039Z,5.53
2019-04-19T15:12:36.464Z,4.85
2019-04-19T15:15:06.178Z,4.33
2019-04-19T15:17:35.295Z,4.15
2019-04-19T15:20:03.718Z,4.28
2019-04-19T15:22:32.938Z,10.70
2019-04-19T15:25:02.531Z,10.45
2019-04-19T15:27:32.767Z,6.58
2019-04-19T15:30:01.096Z,4.97
2019-04-19T15:32:30.595Z,4.50
2019-04-19T15:34:59.257Z,5.08
2019-04-19T15:37:29.645Z,6.17
2019-04-19T15:39:58.070Z,6.30
2019-04-19T15:42:28.878Z,5.85
2019-04-19T15:44:57.026Z,4.85
2019-04-19T15:47:26.544Z,4.87
2019-04-19T15:49:55.849Z,5.90
2019-04-19T15:52:26.138Z,8.28
2019-04-19T15:54:54.286Z,4.22
2019-04-19T15:57:23.875Z,4.78
2019-04-19T15:59:53.784Z,4.40
2019-04-19T16:02:33.831Z,4.62
2019-04-19T16:05:24.176Z,4.47
2019-04-19T16:08:12.136Z,4.58
2019-04-19T16:10:54.886Z,4.12
2019-04-19T16:13:23.652Z,4.67
2019-04-19T16:15:52.173Z,4.47
2019-04-19T16:18:22.228Z,4.33
2019-04-19T16:20:51.244Z,4.40
2019-04-19T16:23:20.597Z,4.08
2019-04-19T16:25:49.786Z,4.45
2019-04-19T16:28:19.297Z,4.40
2019-04-19T16:30:48.598Z,4.72
2019-04-19T16:33:17.832Z,4.25
2019-04-19T16:35:46.618Z,4.25
2019-04-19T16:38:16.380Z,10.35
2019-04-19T16:40:46.237Z,7.87
2019-04-19T16:43:15.418Z,7.60
2019-04-19T16:45:44.096Z,4.50
2019-04-19T16:48:13.024Z,3.70
2019-04-19T16:50:42.905Z,4.62
2019-04-19T16:53:11.364Z,4.47
2019-04-19T16:55:41.515Z,4.33
2019-04-19T16:58:10.537Z,4.83
2019-04-19T17:00:41.091Z,4.12
2019-04-19T17:03:11.532Z,4.30
2019-04-19T17:05:39.708Z,4.22
2019-04-19T17:08:09.383Z,4.33
2019-04-19T17:10:38.708Z,3.90
2019-04-19T17:13:08.621Z,4.50
2019-04-19T17:16:05.156Z,3.87
2019-04-19T17:18:52.717Z,4.53
2019-04-19T17:21:22.174Z,4.15
2019-04-19T17:23:51.443Z,4.20
2019-04-19T17:26:20.714Z,4.08
2019-04-19T17:28:50.814Z,12.05
2019-04-19T17:31:20.276Z,16.45
2019-04-19T17:33:48.524Z,6.78
2019-04-19T17:36:17.910Z,4.67
2019-04-19T17:38:50.652Z,4.30
2019-04-19T17:41:16.614Z,4.35
2019-04-19T17:43:45.743Z,4.70
2019-04-19T17:46:14.796Z,4.45
2019-04-19T17:48:44.430Z,5.10
2019-04-19T17:51:13.807Z,4.70
2019-04-19T17:53:46.987Z,4.85
2019-04-19T17:56:13.091Z,4.45
2019-04-19T17:58:42.333Z,4.45
2019-04-19T18:01:10.433Z,4.53
2019-04-19T18:03:40.696Z,4.65
2019-04-19T18:06:09.886Z,14.73
2019-04-19T18:08:39.276Z,27.77
2019-04-19T18:11:07.521Z,11.15
2019-04-19T18:13:37.271Z,6.05
2019-04-19T18:16:06.806Z,5.10
2019-04-19T18:18:41.262Z,4.40
2019-04-19T18:21:05.580Z,4.78
2019-04-19T18:23:43.050Z,4.47
2019-04-19T18:26:03.348Z,4.60
2019-04-19T18:28:38.291Z,4.65
2019-04-19T18:31:02.459Z,4.30
2019-04-19T18:33:33.667Z,4.42
2019-04-19T18:36:08.246Z,4.62
2019-04-19T18:38:32.845Z,4.55
2019-04-19T18:41:01.316Z,4.37
2019-04-19T18:43:38.655Z,4.85
2019-04-19T18:46:00.378Z,21.02
2019-04-19T18:48:29.712Z,27.40
2019-04-19T18:51:00.120Z,11.40
2019-04-19T18:53:37.816Z,5.85
2019-04-19T18:55:58.838Z,5.37
2019-04-19T18:58:30.898Z,4.97
2019-04-19T19:00:57.108Z,4.97
2019-04-19T19:03:35.157Z,5.12
2019-04-19T19:06:00.557Z,4.95
2019-04-19T19:08:29.370Z,5.10
2019-04-19T19:10:55.526Z,15.80
2019-04-19T19:13:28.830Z,23.87
2019-04-19T19:15:55.895Z,5.40
2019-04-19T19:18:27.944Z,5.50
2019-04-19T19:20:56.550Z,5.00
2019-04-19T19:23:42.197Z,5.07
2019-04-19T19:26:03.172Z,4.87
2019-04-19T19:28:21.609Z,5.30
2019-04-19T19:30:49.034Z,5.33
2019-04-19T19:33:20.517Z,5.13
2019-04-19T19:35:54.911Z,5.60
2019-04-19T19:38:21.944Z,5.43
2019-04-19T19:40:59.842Z,5.33
2019-04-19T19:43:33.947Z,5.00
2019-04-19T19:45:55.737Z,6.07
2019-04-19T19:48:36.029Z,5.50
2019-04-19T19:51:04.906Z,5.65
2019-04-19T19:56:11.374Z,6.37
2019-04-19T19:58:22.187Z,5.57
2019-04-19T20:00:55.546Z,5.43
2019-04-19T20:03:18.415Z,5.60
2019-04-19T20:05:40.841Z,4.90
2019-04-19T20:08:08.283Z,5.20
2019-04-19T20:10:43.304Z,5.23
2019-04-19T20:13:11.003Z,4.93
2019-04-19T20:15:39.590Z,4.67
2019-04-19T20:18:06.494Z,5.03
2019-04-19T20:20:38.929Z,5.00
2019-04-19T20:23:04.425Z,4.90
2019-04-19T20:25:41.911Z,4.70
2019-04-19T20:28:02.972Z,4.30
2019-04-19T20:30:39.146Z,7.58
2019-04-19T20:33:02.677Z,6.83
2019-04-19T20:35:30.034Z,5.63
2019-04-19T20:38:03.416Z,5.13
2019-04-19T20:40:30.615Z,8.23
2019-04-19T20:43:23.548Z,6.33
2019-04-19T20:45:36.865Z,5.07
2019-04-19T20:48:07.071Z,5.23
2019-04-19T20:50:39.856Z,5.17
2019-04-19T20:53:08.632Z,5.60
2019-04-19T20:55:40.160Z,5.87
2019-04-19T20:58:09.340Z,6.03
2019-04-19T21:00:50.438Z,5.53
2019-04-19T21:03:26.596Z,5.23
2019-04-19T21:05:49.724Z,5.47
2019-04-19T21:08:20.883Z,5.77
2019-04-19T21:10:54.552Z,5.73
2019-04-19T21:13:18.852Z,5.70
2019-04-19T21:15:45.092Z,5.47
2019-04-19T21:18:20.012Z,5.17
2019-04-19T21:20:44.612Z,5.73
2019-04-19T21:23:18.447Z,5.53
2019-04-19T21:25:49.432Z,5.20
2019-04-19T21:28:11.053Z,6.33
2019-04-19T21:30:47.045Z,14.10
2019-04-19T21:33:13.389Z,12.10
2019-04-19T21:35:47.602Z,6.57
2019-04-19T21:38:11.786Z,5.53
2019-04-19T21:40:40.137Z,5.90
2019-04-19T21:43:08.265Z,5.30
2019-04-19T21:45:41.764Z,5.43
2019-04-19T21:48:05.471Z,5.40
2019-04-19T21:50:39.457Z,6.07
2019-04-19T21:53:08.829Z,4.83
2019-04-19T21:55:40.177Z,5.63
2019-04-19T21:58:08.923Z,4.90
2019-04-19T22:00:58.768Z,5.33
2019-04-19T22:03:23.192Z,5.27
2019-04-19T22:05:49.351Z,5.47
2019-04-19T22:08:23.428Z,5.10
2019-04-19T22:10:50.047Z,4.97
2019-04-19T22:13:16.742Z,8.77
2019-04-19T22:15:51.103Z,9.67
2019-04-19T22:18:15.285Z,5.77
2019-04-19T22:20:51.519Z,5.20
2019-04-19T22:23:14.817Z,4.67
2019-04-19T22:25:51.319Z,4.63
2019-04-19T22:28:12.284Z,4.77
2019-04-19T22:30:45.478Z,5.30
2019-04-19T22:33:12.552Z,4.80
2019-04-19T22:35:41.620Z,5.00
2019-04-19T22:38:14.165Z,4.50
2019-04-19T22:40:38.965Z,4.60
2019-04-19T22:43:11.549Z,4.97
2019-04-19T22:45:38.903Z,4.77
2019-04-19T22:48:14.039Z,8.47
2019-04-19T22:50:40.050Z,8.43
2019-04-19T22:53:05.467Z,5.10
2019-04-19T22:55:45.196Z,4.47
2019-04-19T22:58:04.660Z,4.77
2019-04-19T23:00:38.555Z,4.37
2019-04-19T23:03:25.097Z,4.77
2019-04-19T23:05:47.020Z,9.43
2019-04-19T23:08:19.315Z,5.83
2019-04-19T23:10:52.461Z,5.07
2019-04-19T23:13:15.474Z,4.47
2019-04-19T23:15:43.813Z,4.87
2019-04-19T23:18:18.608Z,4.80
2019-04-19T23:20:43.271Z,4.20
2019-04-19T23:23:20.349Z,4.90
2019-04-19T23:25:44.148Z,5.07
2019-04-19T23:28:19.918Z,4.00
2019-04-19T23:30:39.110Z,4.50
2019-04-19T23:33:13.330Z,4.43
2019-04-19T23:35:40.026Z,4.60
2019-04-19T23:38:07.413Z,4.53
2019-04-19T23:40:39.057Z,4.60
2019-04-19T23:43:06.111Z,4.63
2019-04-19T23:45:39.061Z,4.50
2019-04-19T23:48:04.591Z,4.17
2019-04-19T23:50:37.933Z,5.10
2019-04-19T23:53:04.094Z,6.97
2019-04-19T23:55:32.758Z,10.33
2019-04-19T23:58:01.431Z,5.73
